2014 Nerds vs Zombies

back to results

Oct. 26, 2014

2014 Nerds vs Zombies
Gallup Park, Ann Arbor
Provided by Race Timing Services



Nerds vs Zombies 5K
Age Group Results
October 26, 2014
Race Timing Services

Male Open Winners

Place Name City Age Overall Total Time Pace
1 Ryan McCormack Ann Arbor MI 21 1 19:53 6:25/M

Female Open Winners

Place Name City Age Overall Total Time Pace
1 Essie Vander We Vander Werf Zeeland MI 25 3 20:25 6:35/M

Male Masters Winners

Place Name City Age Overall Total Time Pace
1 Dave Mann Detroit MI 53 2 20:03 6:28/M

Female Masters Winners

Place Name City Age Overall Total Time Pace
1 Jamie Haberichter Ann Arbor MI 40 9 23:05 7:27/M

Missing info/No Age Given

Place Name City Age Overall Total Time Pace
1 Lisa Fonseca 0 124 49:48 16:04/M

Male 10 & Under

Place Name City Age Overall Total Time Pace
1 Ben Stevenson 8 32 28:06 9:04/M
2 Luke Stevenson 4 85 36:09 11:40/M
3 Alex Helton Dexter MI 7 87 36:19 11:43/M

Female 11 to 14

Place Name City Age Overall Total Time Pace
1 Jenna Locricchio Northville MI 13 14 24:59 8:04/M
2 Shannon Ryan Plymouth MI 13 35 28:50 9:18/M
3 Trinity Krajewski Rochester Hills MI 12 50 31:46 10:15/M
4 Olivia Brasch Belleville MI 13 112 45:02 14:32/M
5 Madeline Justice Canton MI 14 113 45:04 14:32/M
6 Angela Majestic Canton MI 13 121 48:46 15:44/M
7 Kayleigh Belanger Plymouth MI 13 122 48:46 15:44/M
8 Madison McCann Canton MI 13 123 48:47 15:44/M
9 Caylin Cook Canton MI 13 137 1:16:12 24:35/M

Male 15 to 19

Place Name City Age Overall Total Time Pace
1 Seth Edwards Walled Lake MI 16 5 20:47 6:42/M
2 Nelson Stockdill Ypsilanti MI 16 40 29:52 9:38/M

Female 15 to 19

Place Name City Age Overall Total Time Pace
1 Shaylea McCabe Brooklyn MI 19 24 26:25 8:31/M

Male 20 to 24

Place Name City Age Overall Total Time Pace
1 Jeff Stern Ann Arbor MI 22 16 25:15 8:09/M
2 Jason Schneider Ann Arbor MI 24 22 25:52 8:21/M
3 Santos Campos Ann Arbor MI 20 30 27:21 8:49/M
4 Jin Woo Lee Ann Arbor MI 24 46 31:17 10:05/M

Female 20 to 24

Place Name City Age Overall Total Time Pace
1 Gina Cortese Ann Arbor MI 22 29 27:11 8:46/M
2 Monica Walker Ann Arbor MI 20 31 27:22 8:50/M
3 Sara Wirsbinski Royal Oak MI 24 52 32:00 10:19/M
4 Alyssa Mrozek South Lyon MI 23 57 32:22 10:26/M
5 Caroline Lupini Ann Arbor MI 22 58 32:32 10:30/M
6 Sylvan Edwards Walled Lake MI 21 84 36:08 11:39/M

Male 25 to 29

Place Name City Age Overall Total Time Pace
1 Kyle Pryce Ann Arbor MI 26 4 20:36 6:39/M
2 Gene Kopp Ann Arbor MI 26 7 22:43 7:20/M
3 Nicholas Parsons Ann Arbor MI 27 19 25:49 8:20/M
4 Erik Copeland Westland MI 29 56 32:18 10:25/M
5 Ryan MacUt Lambertville MI 29 68 33:49 10:55/M
6 Michael Czubek Farmington Hills MI 29 72 34:43 11:12/M
7 Nicholas Klotz Clinton MI 26 107 44:16 14:17/M

Female 25 to 29

Place Name City Age Overall Total Time Pace
1 Lindsey Carlin Ann Arbor MI 29 6 22:30 7:15/M
2 Christina Powers Ann Arbor MI 29 18 25:48 8:19/M
3 Allison Gotelaere Ann Arbor MI 25 21 25:51 8:20/M
4 Shelon Hill Belleville MI 26 25 26:28 8:32/M
5 Sheena Martenies Ann Arbor MI 27 37 29:00 9:21/M
6 Rachel Lee Ann Arbor MI 25 45 31:17 10:05/M
7 Lori Boros Westland MI 29 55 32:16 10:25/M
8 Sara Samuel Ann Arbor MI 29 59 32:36 10:31/M
9 Kristen Mrozek Royal Oak MI 26 71 34:36 11:10/M
10 Stacey Mann Ann Arbor MI 25 73 34:49 11:14/M
11 Cathy Fromen Ann Arbor MI 27 76 35:09 11:20/M
12 Kathleen Byks Ypsilanti MI 27 78 35:33 11:28/M
13 Mariel Hamson Ypsilanti MI 27 79 35:35 11:29/M
14 Taysha Reitzel Edon OH 28 89 37:29 12:05/M
15 Patty Armenio Ypsilanti MI 29 94 38:44 12:30/M
16 Katelyn Zak Ypsilanti MI 26 97 41:25 13:22/M
17 Laurie Jones Novi MI 27 99 42:32 13:43/M
18 Paige Tuggle Ithaca MI 25 101 42:36 13:45/M
19 Amber Mikasa Clinton MI 26 106 44:12 14:15/M
20 Rana Mosh Ann Arbor MI 26 116 46:07 14:53/M
21 Fantasy Lozada Ann Arbor MI 28 118 47:49 15:25/M
22 Katherine Plank Ypsilanti MI 29 133 55:54 18:02/M

Male 30 to 34

Place Name City Age Overall Total Time Pace
1 Joe Raine Ann Arbor MI 32 8 22:45 7:20/M
2 Jared Aymen Clinton MI 31 15 25:14 8:08/M
3 Mauriat Miranda Ann Arbor MI 34 51 31:59 10:19/M
4 Brian Samuel Ann Arbor MI 30 60 32:38 10:32/M
5 Jason Wilson Hudson MI 34 81 35:58 11:36/M
6 Allan Martell Ann Arbor MI 30 100 42:34 13:44/M

Female 30 to 34

Place Name City Age Overall Total Time Pace
1 Tina Pruchyaputtra Horton MI 34 39 29:51 9:38/M
2 Heidi Wasielewski Ann Arbor MI 32 61 32:40 10:32/M
3 Amy Baxter Ypsilanti MI 33 62 32:41 10:33/M
4 Jennifer Cleland Clinton Township MI 33 63 32:41 10:33/M
5 Aislinn Williams Ann Arbor MI 34 65 33:48 10:54/M
6 Pamela Stewart Ann Arbor MI 32 69 33:54 10:56/M
7 Molly Thornbladh Ann Arbor MI 34 80 35:38 11:30/M
8 Nicole Watson Dundee MI 34 95 38:44 12:30/M
9 Suzana Apostolovski Dearborn MI 32 102 43:03 13:53/M
10 Erin Whalen Allen Park MI 34 103 43:04 13:54/M
11 Courtney Aymen Clinton MI 31 108 44:18 14:17/M
12 Mindy Wilson Hudson MI 34 109 44:46 14:26/M
13 Cristin Hipke Canton MI 34 110 44:56 14:30/M
14 Kelly Pfeffer Belleville MI 34 111 44:57 14:30/M
15 Latisha Ross Ann Arbor MI 33 125 49:56 16:06/M
16 Monica Chopra Saline MI 33 135 1:02:05 20:02/M
17 Julie Cook Canton MI 33 136 1:16:12 24:35/M

Male 35 to 39

Place Name City Age Overall Total Time Pace
1 Matthew Elliott Clawson MI 35 10 23:26 7:34/M
2 Brian Cowart Bay City MI 35 12 24:17 7:50/M
3 Neeraj Gonela Ann Arbor MI 37 26 26:35 8:35/M
4 Bryan Wegrzyn Belleville MI 36 34 28:38 9:14/M
5 Tom Watson Dundee MI 38 53 32:01 10:20/M
6 Brent Helton Dexter MI 35 86 36:18 11:43/M
7 Tony Brutz Belleville MI 39 105 43:50 14:08/M

Female 35 to 39

Place Name City Age Overall Total Time Pace
1 Gwyneth Elliott Clawson MI 36 13 24:42 7:58/M
2 Ericka Krajewski Rochester Hills MI 36 54 32:03 10:20/M
3 Alexis Priest Shelby Township MI 36 64 32:53 10:36/M
4 Shonda Friday-Willingham Macomb MI 37 67 33:49 10:55/M
5 Christina Czaja Ypsilanti MI 39 75 35:03 11:18/M
6 Kristal Brown Clinton MI 36 104 43:49 14:08/M
7 Jessannynrm Ressler-Mallender Ann Arbor MI 37 115 46:06 14:52/M
8 Kimberly Wegrzyn Belleville MI 36 117 46:54 15:08/M
9 Emily Baker Huntington Woods MI 37 126 49:59 16:07/M
10 Sarah Walsh Ypsilanti MI 36 127 50:00 16:08/M
11 Shannon Vandervennet Belleville MI 35 131 55:50 18:01/M
12 Korina Williamson Ann Arbor MI 35 132 55:50 18:01/M

Male 40 to 44

Place Name City Age Overall Total Time Pace
1 Brian Ball Hopkinton MA 41 48 31:33 10:11/M
2 Peter Stevenson 43 82 36:07 11:39/M
3 Mike O'Connor Waterford MI 44 92 38:40 12:28/M

Female 40 to 44

Place Name City Age Overall Total Time Pace
1 Irene Ryan Plymouth MI 42 11 23:36 7:37/M
2 Denise Dashner Temperance MI 44 27 26:52 8:40/M
3 Carolyn Ball Hopkinton MA 44 47 31:32 10:10/M
4 Richele Ferrara-Dausey Macomb MI 43 66 33:48 10:54/M
5 Jennifer Baldwin Hartland MI 40 74 35:02 11:18/M
6 Asya Childers Canton MI 42 93 38:40 12:28/M
7 Tina Zuber Commerce Twp MI 41 96 41:23 13:21/M
8 Tabitha Barnowsky Ypsilanti MI 43 98 42:00 13:33/M
9 Tanya Stevenson 43 128 50:14 16:12/M

Male 45 to 49

Place Name City Age Overall Total Time Pace
1 Shannon Gordon Ypsilanti MI 47 36 28:57 9:20/M
2 Darin Stockdill Ypsilanti MI 45 42 29:57 9:40/M
3 Pat Zuber Commerce Twp MI 47 43 31:00 10:00/M
4 Ken Mrozek South Rockwood MI 47 70 34:18 11:04/M
5 Carmi Edwards Walled Lake MI 47 83 36:08 11:39/M
6 Chad Childers Canton MI 49 91 38:31 12:25/M

Female 45 to 49

Place Name City Age Overall Total Time Pace
1 Kathy Edwards Walled Lake MI 45 41 29:53 9:38/M
2 Brenda Belanger Plymouth MI 46 49 31:34 10:11/M
3 Debbie Krone 47 77 35:09 11:20/M
4 Jodi Prahler Ypsilanti MI 47 119 48:36 15:41/M
5 Jody Drobot Oak Park MI 46 120 48:41 15:42/M
6 Anne Fischer Chelsea MI 48 134 59:26 19:10/M

Male 50 to 54

Place Name City Age Overall Total Time Pace
1 Jim Zittel Waterford MI 51 38 29:03 9:22/M
2 James Eaton Onsted MI 54 88 37:09 11:59/M

Male 55 to 59

Place Name City Age Overall Total Time Pace
1 Bruce Berndt Farmington Hills MI 56 20 25:50 8:20/M
2 Doug Pontious Wolverine Lake MI 55 23 25:56 8:22/M
3 Domingo Valadez Temperance MI 55 28 26:58 8:42/M
4 Rick Borgman Zeeland MI 59 33 28:21 9:09/M
5 Stephen Roberts Canton MI 58 44 31:04 10:01/M

Female 55 to 59

Place Name City Age Overall Total Time Pace
1 Alice Bergeson Novi MI 58 90 37:44 12:10/M
2 Linda Struble Novi MI 57 130 51:08 16:30/M

Male 60 to 64

Place Name City Age Overall Total Time Pace
1 Phillip Leja Northville MI 63 17 25:21 8:11/M

Female 60 to 64

Place Name City Age Overall Total Time Pace
1 Linda Szyszko 64 129 50:16 16:13/M

Male 70 and over

Place Name City Age Overall Total Time Pace
1 Ren Farley Ann Arbor MI 76 114 45:20 14:37/M




Nerds vs Zombies
Final Team Results
October 26, 2014
Race Timing Services

Team - ZombieFinish Position - 1
Team Score (places): 3419 Team Score (times): 34:01
Team Pos Bib No Name City/State O'all Place Cum. Place Time Ave. Time
1 372 Essie Vander We Vander Werf Zeeland, MI 3 3 20:25 20:25
2 349 Kyle Pryce Ann Arbor, MI 4 7 20:36 20:30
3 287 Seth Edwards Walled Lake, MI 5 12 20:47 20:36
4 315 Gene Kopp Ann Arbor, MI 7 19 22:43 21:08
5 355 Irene Ryan Plymouth, MI 11 30 23:36 21:37
6 288 Gwyneth Elliott Clawson, MI 13 43 24:42 22:08
7 321 Jenna Locricchio Northville, MI 14 57 24:59 22:33
8 320 Phillip Leja Northville, MI 17 74 25:21 22:54
9 255 Bruce Berndt Farmington Hills, MI 20 94 25:50 23:13
10 299 Allison Gotelaere Ann Arbor, MI 21 115 25:51 23:29
11 358 Jason Schneider Ann Arbor, MI 22 137 25:52 23:42
12 330 Shaylea McCabe Brooklyn, MI 24 161 26:25 23:56
13 393 Shelon Hill Belleville, MI 25 186 26:28 24:07
14 296 Neeraj Gonela Ann Arbor, MI 26 212 26:35 24:18
15 279 Denise Dashner Temperance, MI 27 239 26:52 24:28
16 371 Domingo Valadez Temperance, MI 28 267 26:58 24:37
17 396 Ben Stevenson , 32 299 28:06 24:50
18 257 Rick Borgman Zeeland, MI 33 332 28:21 25:01
19 379 Bryan Wegrzyn Belleville, MI 34 366 28:38 25:13
20 354 Shannon Ryan Plymouth, MI 35 401 28:50 25:24
21 298 Shannon Gordon Ypsilanti, MI 36 437 28:57 25:34
22 406 Jim Zittel Waterford, MI 38 475 29:03 25:43
23 392 Tina Pruchyaputtra Horton, MI 39 514 29:51 25:54
24 365 Nelson Stockdill Ypsilanti, MI 40 554 29:52 26:04
25 364 Darin Stockdill Ypsilanti, MI 42 596 29:57 26:13
26 59 Carolyn Ball Hopkinton, MA 47 643 31:32 26:26
27 377 Tom Watson Dundee, MI 53 696 32:01 26:38
28 336 Alyssa Mrozek South Lyon, MI 57 753 32:22 26:50
29 323 Ryan MacUt Lambertville, MI 68 821 33:49 27:05
30 335 Kristen Mrozek Royal Oak, MI 71 892 34:36 27:20
31 405 Debbie Krone , 77 969 35:09 27:35
32 264 Kathleen Byks Ypsilanti, MI 78 1047 35:33 27:50
33 302 Mariel Hamson Ypsilanti, MI 79 1126 35:35 28:04
34 397 Peter Stevenson , 82 1208 36:07 28:18
35 407 Carmi Edwards Walled Lake, MI 83 1291 36:08 28:32
36 403 Luke Stevenson , 85 1376 36:09 28:44
37 305 Brent Helton Dexter, MI 86 1462 36:18 28:57
38 306 Alex Helton Dexter, MI 87 1549 36:19 29:08
39 282 James Eaton Onsted, MI 88 1637 37:09 29:21
40 351 Taysha Reitzel Edon, OH 89 1726 37:29 29:33
41 340 Mike O'Connor Waterford, MI 92 1818 38:40 29:46
42 249 Tabitha Barnowsky Ypsilanti, MI 98 1916 42:00 30:04
43 310 Laurie Jones Novi, MI 99 2015 42:32 30:21
44 262 Tony Brutz Belleville, MI 105 2120 43:50 30:39
45 333 Amber Mikasa Clinton, MI 106 2226 44:12 30:57
46 56 Courtney Aymen Clinton, MI 108 2334 44:18 31:15
47 343 Kelly Pfeffer Belleville, MI 111 2445 44:57 31:32
48 290 Ren Farley Ann Arbor, MI 114 2559 45:20 31:50
49 380 Kimberly Wegrzyn Belleville, MI 117 2676 46:54 32:08
50 401 Fantasy Lozada Ann Arbor, MI 118 2794 47:49 32:27
51 347 Jodi Prahler Ypsilanti, MI 119 2913 48:36 32:46
52 400 Lisa Fonseca , 124 3037 49:48 33:06
53 402 Latisha Ross Ann Arbor, MI 125 3162 49:56 33:25
54 404 Tanya Stevenson , 128 3290 50:14 33:43
55 395 Linda Szyszko , 129 3419 50:16 34:01

Team - NerdFinish Position - 2
Team Score (places): 6034 Team Score (times): 37:34
Team Pos Bib No Name City/State O'all Place Cum. Place Time Ave. Time
1 332 Ryan McCormack Ann Arbor, MI 1 1 19:53 19:53
2 325 Dave Mann Detroit, MI 2 3 20:03 19:58
3 266 Lindsey Carlin Ann Arbor, MI 6 9 22:30 20:49
4 350 Joe Raine Ann Arbor, MI 8 17 22:45 21:18
5 301 Jamie Haberichter Ann Arbor, MI 9 26 23:05 21:39
6 289 Matthew Elliott Clawson, MI 10 36 23:26 21:57
7 276 Brian Cowart Bay City, MI 12 48 24:17 22:17
8 55 Jared Aymen Clinton, MI 15 63 25:14 22:39
9 362 Jeff Stern Ann Arbor, MI 16 79 25:15 22:57
10 346 Christina Powers Ann Arbor, MI 18 97 25:48 23:14
11 341 Nicholas Parsons Ann Arbor, MI 19 116 25:49 23:28
12 345 Doug Pontious Wolverine Lake, MI 23 139 25:56 23:40
13 275 Gina Cortese Ann Arbor, MI 29 168 27:11 23:56
14 265 Santos Campos Ann Arbor, MI 30 198 27:21 24:11
15 374 Monica Walker Ann Arbor, MI 31 229 27:22 24:24
16 329 Sheena Martenies Ann Arbor, MI 37 266 29:00 24:41
17 284 Kathy Edwards Walled Lake, MI 41 307 29:53 24:59
18 391 Pat Zuber Commerce Twp, MI 43 350 31:00 25:19
19 353 Stephen Roberts Canton, MI 44 394 31:04 25:37
20 319 Rachel Lee Ann Arbor, MI 45 439 31:17 25:54
21 318 Jin Woo Lee Ann Arbor, MI 46 485 31:17 26:10
22 60 Brian Ball Hopkinton, MA 48 533 31:33 26:24
23 252 Brenda Belanger Plymouth, MI 49 582 31:34 26:38
24 317 Trinity Krajewski Rochester Hills, MI 50 632 31:46 26:51
25 334 Mauriat Miranda Ann Arbor, MI 51 683 31:59 27:03
26 388 Sara Wirsbinski Royal Oak, MI 52 735 32:00 27:14
27 316 Ericka Krajewski Rochester Hills, MI 54 789 32:03 27:25
28 258 Lori Boros Westland, MI 55 844 32:16 27:36
29 274 Erik Copeland Westland, MI 56 900 32:18 27:45
30 322 Caroline Lupini Ann Arbor, MI 58 958 32:32 27:55
31 357 Sara Samuel Ann Arbor, MI 59 1017 32:36 28:04
32 356 Brian Samuel Ann Arbor, MI 60 1077 32:38 28:12
33 376 Heidi Wasielewski Ann Arbor, MI 61 1138 32:40 28:21
34 250 Amy Baxter Ypsilanti, MI 62 1200 32:41 28:28
35 270 Jennifer Cleland Clinton Township, MI 63 1263 32:41 28:35
36 348 Alexis Priest Shelby Township, MI 64 1327 32:53 28:43
37 384 Aislinn Williams Ann Arbor, MI 65 1392 33:48 28:51
38 291 Richele Ferrara-Dausey Macomb, MI 66 1458 33:48 28:59
39 293 Shonda Friday-Willingham Macomb, MI 67 1525 33:49 29:06
40 363 Pamela Stewart Ann Arbor, MI 69 1594 33:54 29:13
41 337 Ken Mrozek South Rockwood, MI 70 1664 34:18 29:21
42 278 Michael Czubek Farmington Hills, MI 72 1736 34:43 29:28
43 326 Stacey Mann Ann Arbor, MI 73 1809 34:49 29:36
44 58 Jennifer Baldwin Hartland, MI 74 1883 35:02 29:43
45 277 Christina Czaja Ypsilanti, MI 75 1958 35:03 29:50
46 294 Cathy Fromen Ann Arbor, MI 76 2034 35:09 29:57
47 369 Molly Thornbladh Ann Arbor, MI 80 2114 35:38 30:05
48 387 Jason Wilson Hudson, MI 81 2195 35:58 30:12
49 286 Sylvan Edwards Walled Lake, MI 84 2279 36:08 30:19
50 254 Alice Bergeson Novi, MI 90 2369 37:44 30:28
51 268 Chad Childers Canton, MI 91 2460 38:31 30:38
52 267 Asya Childers Canton, MI 93 2553 38:40 30:47
53 54 Patty Armenio Ypsilanti, MI 94 2647 38:44 30:56
54 378 Nicole Watson Dundee, MI 95 2742 38:44 31:05
55 390 Tina Zuber Commerce Twp, MI 96 2838 41:23 31:16
56 389 Katelyn Zak Ypsilanti, MI 97 2935 41:25 31:27
57 328 Allan Martell Ann Arbor, MI 100 3035 42:34 31:38
58 370 Paige Tuggle Ithaca, MI 101 3136 42:36 31:50
59 53 Suzana Apostolovski Dearborn, MI 102 3238 43:03 32:01
60 383 Erin Whalen Allen Park, MI 103 3341 43:04 32:12
61 261 Kristal Brown Clinton, MI 104 3445 43:49 32:24
62 313 Nicholas Klotz Clinton, MI 107 3552 44:16 32:35
63 386 Mindy Wilson Hudson, MI 109 3661 44:46 32:47
64 307 Cristin Hipke Canton, MI 110 3771 44:56 32:58
65 394 Olivia Brasch Belleville, MI 112 3883 45:02 33:09
66 311 Madeline Justice Canton, MI 113 3996 45:04 33:20
67 398 Jessannynrm Ressler-Mallender Ann Arbor, MI 115 4111 46:06 33:31
68 399 Rana Mosh Ann Arbor, MI 116 4227 46:07 33:43
69 281 Jody Drobot Oak Park, MI 120 4347 48:41 33:56
70 324 Angela Majestic Canton, MI 121 4468 48:46 34:08
71 253 Kayleigh Belanger Plymouth, MI 122 4590 48:46 34:21
72 331 Madison McCann Canton, MI 123 4713 48:47 34:33
73 57 Emily Baker Huntington Woods, MI 126 4839 49:59 34:45
74 375 Sarah Walsh Ypsilanti, MI 127 4966 50:00 34:58
75 366 Linda Struble Novi, MI 130 5096 51:08 35:11
76 373 Shannon Vandervennet Belleville, MI 131 5227 55:50 35:27
77 385 Korina Williamson Ann Arbor, MI 132 5359 55:50 35:43
78 344 Katherine Plank Ypsilanti, MI 133 5492 55:54 35:58
79 292 Anne Fischer Chelsea, MI 134 5626 59:26 36:16
80 269 Monica Chopra Saline, MI 135 5761 1:02:05 36:36
81 272 Julie Cook Canton, MI 136 5897 1:16:12 37:05
82 273 Caylin Cook Canton, MI 137 6034 1:16:12 37:34